sensor_id;sensor_type;location;lat;lon;timestamp;pressure;altitude;pressure_sealevel;temperature;humidity
58967;BME280;44744;51.894;5.080;2023-04-19T00:00:10;102867.08;;;9.05;74.43
58967;BME280;44744;51.894;5.080;2023-04-19T00:01:11;102867.11;;;9.03;74.60
58967;BME280;44744;51.894;5.080;2023-04-19T00:02:11;102867.63;;;9.03;75.10
58967;BME280;44744;51.894;5.080;2023-04-19T00:03:11;102867.32;;;9.02;74.95
58967;BME280;44744;51.894;5.080;2023-04-19T00:04:11;102865.73;;;9.01;74.88
58967;BME280;44744;51.894;5.080;2023-04-19T00:05:12;102865.02;;;9.01;75.00
58967;BME280;44744;51.894;5.080;2023-04-19T00:06:12;102865.35;;;9.02;75.44
58967;BME280;44744;51.894;5.080;2023-04-19T00:07:12;102865.20;;;9.01;75.41
58967;BME280;44744;51.894;5.080;2023-04-19T00:08:12;102865.02;;;9.00;75.41
58967;BME280;44744;51.894;5.080;2023-04-19T00:09:13;102866.25;;;9.01;75.16
58967;BME280;44744;51.894;5.080;2023-04-19T00:10:13;102865.20;;;9.02;75.27
58967;BME280;44744;51.894;5.080;2023-04-19T00:11:14;102865.34;;;9.03;75.31
58967;BME280;44744;51.894;5.080;2023-04-19T00:12:14;102869.20;;;9.04;75.14
58967;BME280;44744;51.894;5.080;2023-04-19T00:13:14;102867.94;;;9.06;75.48
58967;BME280;44744;51.894;5.080;2023-04-19T00:14:14;102866.88;;;9.07;75.51
58967;BME280;44744;51.894;5.080;2023-04-19T00:15:15;102865.26;;;9.08;75.75
58967;BME280;44744;51.894;5.080;2023-04-19T00:16:15;102861.89;;;9.09;75.78
58967;BME280;44744;51.894;5.080;2023-04-19T00:17:15;102861.56;;;9.08;75.66
58967;BME280;44744;51.894;5.080;2023-04-19T00:18:16;102862.59;;;9.09;75.93
58967;BME280;44744;51.894;5.080;2023-04-19T00:19:16;102857.82;;;9.10;76.28
58967;BME280;44744;51.894;5.080;2023-04-19T00:20:16;102862.75;;;9.10;76.13
58967;BME280;44744;51.894;5.080;2023-04-19T00:21:17;102858.34;;;9.10;76.30
58967;BME280;44744;51.894;5.080;2023-04-19T00:22:17;102859.40;;;9.10;76.32
58967;BME280;44744;51.894;5.080;2023-04-19T00:23:17;102859.91;;;9.11;76.38
58967;BME280;44744;51.894;5.080;2023-04-19T00:24:17;102855.14;;;9.11;76.66
58967;BME280;44744;51.894;5.080;2023-04-19T00:25:19;102856.55;;;9.12;76.68
58967;BME280;44744;51.894;5.080;2023-04-19T00:26:19;102855.84;;;9.12;76.94
58967;BME280;44744;51.894;5.080;2023-04-19T00:27:19;102852.84;;;9.12;76.53
58967;BME280;44744;51.894;5.080;2023-04-19T00:28:20;102851.58;;;9.12;76.86
58967;BME280;44744;51.894;5.080;2023-04-19T00:29:20;102853.00;;;9.13;76.83
58967;BME280;44744;51.894;5.080;2023-04-19T00:30:20;102851.38;;;9.15;77.51
58967;BME280;44744;51.894;5.080;2023-04-19T00:31:21;102850.84;;;9.14;77.11
58967;BME280;44744;51.894;5.080;2023-04-19T00:32:22;102849.09;;;9.14;77.11
58967;BME280;44744;51.894;5.080;2023-04-19T00:33:23;102846.78;;;9.15;76.93
58967;BME280;44744;51.894;5.080;2023-04-19T00:34:23;102845.91;;;9.14;77.36
58967;BME280;44744;51.894;5.080;2023-04-19T00:35:23;102851.20;;;9.15;77.43
58967;BME280;44744;51.894;5.080;2023-04-19T00:36:26;102846.77;;;9.16;77.36
58967;BME280;44744;51.894;5.080;2023-04-19T00:37:27;102846.74;;;9.18;77.30
58967;BME280;44744;51.894;5.080;2023-04-19T00:38:27;102844.78;;;9.19;77.68
58967;BME280;44744;51.894;5.080;2023-04-19T00:39:27;102842.64;;;9.19;77.43
58967;BME280;44744;51.894;5.080;2023-04-19T00:40:27;102841.59;;;9.19;77.36
58967;BME280;44744;51.894;5.080;2023-04-19T00:41:28;102840.34;;;9.20;77.23
58967;BME280;44744;51.894;5.080;2023-04-19T00:42:29;102841.35;;;9.23;77.85
58967;BME280;44744;51.894;5.080;2023-04-19T00:43:29;102837.45;;;9.24;77.47
58967;BME280;44744;51.894;5.080;2023-04-19T00:44:30;102837.26;;;9.25;77.39
58967;BME280;44744;51.894;5.080;2023-04-19T00:45:31;102835.99;;;9.27;77.50
58967;BME280;44744;51.894;5.080;2023-04-19T00:46:32;102834.55;;;9.28;77.63
58967;BME280;44744;51.894;5.080;2023-04-19T00:47:33;102833.63;;;9.30;77.76
58967;BME280;44744;51.894;5.080;2023-04-19T00:48:34;102830.27;;;9.31;77.85
58967;BME280;44744;51.894;5.080;2023-04-19T00:49:34;102833.79;;;9.32;77.64
58967;BME280;44744;51.894;5.080;2023-04-19T00:50:34;102832.71;;;9.32;77.42
58967;BME280;44744;51.894;5.080;2023-04-19T00:51:35;102828.45;;;9.34;77.70
58967;BME280;44744;51.894;5.080;2023-04-19T00:52:36;102830.02;;;9.35;77.70
58967;BME280;44744;51.894;5.080;2023-04-19T00:53:36;102830.35;;;9.36;77.54
58967;BME280;44744;51.894;5.080;2023-04-19T00:54:37;102829.29;;;9.37;77.53
58967;BME280;44744;51.894;5.080;2023-04-19T00:55:38;102830.82;;;9.39;77.67
58967;BME280;44744;51.894;5.080;2023-04-19T00:56:39;102829.59;;;9.39;77.61
58967;BME280;44744;51.894;5.080;2023-04-19T00:57:40;102829.04;;;9.40;77.65
58967;BME280;44744;51.894;5.080;2023-04-19T00:58:40;102831.49;;;9.42;77.78
58967;BME280;44744;51.894;5.080;2023-04-19T00:59:40;102830.95;;;9.43;77.64
58967;BME280;44744;51.894;5.080;2023-04-19T01:00:41;102831.45;;;9.44;77.77
58967;BME280;44744;51.894;5.080;2023-04-19T01:01:44;102830.20;;;9.44;77.72
58967;BME280;44744;51.894;5.080;2023-04-19T01:02:44;102830.90;;;9.45;77.90
58967;BME280;44744;51.894;5.080;2023-04-19T01:03:45;102826.63;;;9.46;78.01
58967;BME280;44744;51.894;5.080;2023-04-19T01:04:46;102826.27;;;9.47;78.03
58967;BME280;44744;51.894;5.080;2023-04-19T01:05:46;102825.55;;;9.48;77.98
58967;BME280;44744;51.894;5.080;2023-04-19T01:06:47;102823.59;;;9.49;78.03
58967;BME280;44744;51.894;5.080;2023-04-19T01:07:47;102824.09;;;9.50;78.23
58967;BME280;44744;51.894;5.080;2023-04-19T01:08:51;102824.79;;;9.50;78.09
58967;BME280;44744;51.894;5.080;2023-04-19T01:09:53;102824.06;;;9.51;78.17
58967;BME280;44744;51.894;5.080;2023-04-19T01:10:54;102823.70;;;9.52;78.19
58967;BME280;44744;51.894;5.080;2023-04-19T01:11:54;102821.21;;;9.53;78.26
58967;BME280;44744;51.894;5.080;2023-04-19T01:12:54;102821.70;;;9.54;78.41
58967;BME280;44744;51.894;5.080;2023-04-19T01:13:55;102819.94;;;9.55;78.44
58967;BME280;44744;51.894;5.080;2023-04-19T01:14:55;102820.80;;;9.56;78.53
58967;BME280;44744;51.894;5.080;2023-04-19T01:15:56;102823.08;;;9.56;78.41
58967;BME280;44744;51.894;5.080;2023-04-19T01:16:57;102820.60;;;9.57;78.42
58967;BME280;44744;51.894;5.080;2023-04-19T01:17:57;102819.16;;;9.58;78.67
58967;BME280;44744;51.894;5.080;2023-04-19T01:18:57;102822.69;;;9.59;78.61
58967;BME280;44744;51.894;5.080;2023-04-19T01:20:02;102823.19;;;9.61;78.67
58967;BME280;44744;51.894;5.080;2023-04-19T01:21:06;102823.70;;;9.62;78.70
58967;BME280;44744;51.894;5.080;2023-04-19T01:22:08;102823.16;;;9.62;78.77
58967;BME280;44744;51.894;5.080;2023-04-19T01:23:08;102822.27;;;9.62;78.84
58967;BME280;44744;51.894;5.080;2023-04-19T01:24:09;102826.30;;;9.64;78.88
58967;BME280;44744;51.894;5.080;2023-04-19T01:25:09;102825.05;;;9.65;78.71
58967;BME280;44744;51.894;5.080;2023-04-19T01:26:09;102825.90;;;9.66;78.81
58967;BME280;44744;51.894;5.080;2023-04-19T01:27:09;102822.90;;;9.66;78.81
58967;BME280;44744;51.894;5.080;2023-04-19T01:28:10;102826.23;;;9.67;79.02
58967;BME280;44744;51.894;5.080;2023-04-19T01:29:10;102827.28;;;9.68;79.03
58967;BME280;44744;51.894;5.080;2023-04-19T01:30:11;102827.09;;;9.68;79.01
58967;BME280;44744;51.894;5.080;2023-04-19T01:31:11;102828.84;;;9.69;79.03
58967;BME280;44744;51.894;5.080;2023-04-19T01:32:14;102824.95;;;9.69;79.08
58967;BME280;44744;51.894;5.080;2023-04-19T01:33:14;102828.11;;;9.70;79.07
58967;BME280;44744;51.894;5.080;2023-04-19T01:34:14;102824.23;;;9.70;79.00
58967;BME280;44744;51.894;5.080;2023-04-19T01:35:15;102826.52;;;9.71;79.34
58967;BME280;44744;51.894;5.080;2023-04-19T01:36:15;102827.05;;;9.71;79.06
58967;BME280;44744;51.894;5.080;2023-04-19T01:37:15;102826.33;;;9.72;79.10
58967;BME280;44744;51.894;5.080;2023-04-19T01:38:16;102827.19;;;9.73;79.12
58967;BME280;44744;51.894;5.080;2023-04-19T01:39:16;102825.21;;;9.74;79.35
58967;BME280;44744;51.894;5.080;2023-04-19T01:40:17;102827.86;;;9.74;79.07
58967;BME280;44744;51.894;5.080;2023-04-19T01:41:17;102825.37;;;9.75;79.59
58967;BME280;44744;51.894;5.080;2023-04-19T01:42:17;102828.21;;;9.74;79.57
58967;BME280;44744;51.894;5.080;2023-04-19T01:43:18;102825.20;;;9.76;79.97
58967;BME280;44744;51.894;5.080;2023-04-19T01:44:18;102824.66;;;9.75;79.90
58967;BME280;44744;51.894;5.080;2023-04-19T01:45:18;102826.95;;;9.76;80.28
58967;BME280;44744;51.894;5.080;2023-04-19T01:46:19;102827.31;;;9.75;80.01
58967;BME280;44744;51.894;5.080;2023-04-19T01:47:20;102825.73;;;9.74;79.82
58967;BME280;44744;51.894;5.080;2023-04-19T01:48:21;102826.98;;;9.74;79.73
58967;BME280;44744;51.894;5.080;2023-04-19T01:49:21;102828.73;;;9.74;79.82
58967;BME280;44744;51.894;5.080;2023-04-19T01:50:21;102824.67;;;9.75;79.91
58967;BME280;44744;51.894;5.080;2023-04-19T01:51:22;102831.36;;;9.76;79.68
58967;BME280;44744;51.894;5.080;2023-04-19T01:52:22;102829.42;;;9.76;79.80
58967;BME280;44744;51.894;5.080;2023-04-19T01:53:22;102828.16;;;9.77;79.85
58967;BME280;44744;51.894;5.080;2023-04-19T01:54:22;102827.29;;;9.77;80.14
58967;BME280;44744;51.894;5.080;2023-04-19T01:55:24;102829.93;;;9.77;80.09
58967;BME280;44744;51.894;5.080;2023-04-19T01:56:25;102829.23;;;9.77;80.24
58967;BME280;44744;51.894;5.080;2023-04-19T01:57:26;102828.05;;;9.74;80.11
58967;BME280;44744;51.894;5.080;2023-04-19T01:58:26;102824.88;;;9.73;80.27
58967;BME280;44744;51.894;5.080;2023-04-19T01:59:50;102824.17;;;9.73;80.12
58967;BME280;44744;51.894;5.080;2023-04-19T02:00:51;102826.33;;;9.72;80.16
58967;BME280;44744;51.894;5.080;2023-04-19T02:01:51;102825.44;;;9.73;80.59
58967;BME280;44744;51.894;5.080;2023-04-19T02:02:51;102826.69;;;9.71;80.49
58967;BME280;44744;51.894;5.080;2023-04-19T02:03:51;102828.29;;;9.70;80.35
58967;BME280;44744;51.894;5.080;2023-04-19T02:05:18;102823.18;;;9.69;80.49
58967;BME280;44744;51.894;5.080;2023-04-19T02:06:18;102826.02;;;9.69;80.32
58967;BME280;44744;51.894;5.080;2023-04-19T02:07:18;102820.37;;;9.69;80.39
58967;BME280;44744;51.894;5.080;2023-04-19T02:08:18;102821.96;;;9.69;80.29
58967;BME280;44744;51.894;5.080;2023-04-19T02:09:19;102821.97;;;9.69;80.38
58967;BME280;44744;51.894;5.080;2023-04-19T02:10:19;102822.30;;;9.70;80.69
58967;BME280;44744;51.894;5.080;2023-04-19T02:11:20;102826.54;;;9.69;80.72
58967;BME280;44744;51.894;5.080;2023-04-19T02:12:21;102821.46;;;9.67;80.66
58967;BME280;44744;51.894;5.080;2023-04-19T02:13:22;102822.19;;;9.66;80.51
58967;BME280;44744;51.894;5.080;2023-04-19T02:14:22;102821.16;;;9.65;80.58
58967;BME280;44744;51.894;5.080;2023-04-19T02:15:22;102820.44;;;9.66;80.52
58967;BME280;44744;51.894;5.080;2023-04-19T02:16:24;102819.55;;;9.66;80.65
58967;BME280;44744;51.894;5.080;2023-04-19T02:17:24;102819.20;;;9.65;80.94
58967;BME280;44744;51.894;5.080;2023-04-19T02:18:24;102820.67;;;9.63;80.93
58967;BME280;44744;51.894;5.080;2023-04-19T02:19:25;102822.13;;;9.61;81.02
58967;BME280;44744;51.894;5.080;2023-04-19T02:20:25;102819.70;;;9.59;80.96
58967;BME280;44744;51.894;5.080;2023-04-19T02:21:25;102820.23;;;9.57;81.09
58967;BME280;44744;51.894;5.080;2023-04-19T02:22:26;102818.84;;;9.56;80.97
58967;BME280;44744;51.894;5.080;2023-04-19T02:23:26;102816.91;;;9.55;80.97
58967;BME280;44744;51.894;5.080;2023-04-19T02:24:26;102816.23;;;9.54;80.87
58967;BME280;44744;51.894;5.080;2023-04-19T02:25:27;102814.10;;;9.55;80.96
58967;BME280;44744;51.894;5.080;2023-04-19T02:26:27;102816.58;;;9.54;80.99
58967;BME280;44744;51.894;5.080;2023-04-19T02:27:28;102814.47;;;9.54;81.01
58967;BME280;44744;51.894;5.080;2023-04-19T02:28:31;102812.20;;;9.53;81.02
58967;BME280;44744;51.894;5.080;2023-04-19T02:29:32;102817.17;;;9.51;81.46
58967;BME280;44744;51.894;5.080;2023-04-19T02:30:35;102812.82;;;9.48;81.24
58967;BME280;44744;51.894;5.080;2023-04-19T02:31:36;102812.66;;;9.47;81.33
58967;BME280;44744;51.894;5.080;2023-04-19T02:32:36;102820.48;;;9.45;81.26
58967;BME280;44744;51.894;5.080;2023-04-19T02:33:36;102818.73;;;9.44;81.12
58967;BME280;44744;51.894;5.080;2023-04-19T02:34:38;102818.55;;;9.44;81.31
58967;BME280;44744;51.894;5.080;2023-04-19T02:35:38;102817.70;;;9.43;81.24
58967;BME280;44744;51.894;5.080;2023-04-19T02:36:38;102818.91;;;9.43;81.59
58967;BME280;44744;51.894;5.080;2023-04-19T02:37:38;102817.52;;;9.42;81.55
58967;BME280;44744;51.894;5.080;2023-04-19T02:38:39;102816.47;;;9.42;81.73
58967;BME280;44744;51.894;5.080;2023-04-19T02:39:39;102818.09;;;9.40;81.51
58967;BME280;44744;51.894;5.080;2023-04-19T02:40:41;102819.88;;;9.39;81.60
58967;BME280;44744;51.894;5.080;2023-04-19T02:41:41;102822.53;;;9.38;81.52
58967;BME280;44744;51.894;5.080;2023-04-19T02:42:41;102818.00;;;9.36;81.62
58967;BME280;44744;51.894;5.080;2023-04-19T02:43:42;102820.30;;;9.35;81.58
58967;BME280;44744;51.894;5.080;2023-04-19T02:44:42;102821.70;;;9.36;81.79
58967;BME280;44744;51.894;5.080;2023-04-19T02:45:42;102819.79;;;9.35;81.74
58967;BME280;44744;51.894;5.080;2023-04-19T02:46:52;102822.29;;;9.33;81.82
58967;BME280;44744;51.894;5.080;2023-04-19T02:47:52;102822.30;;;9.32;81.85
58967;BME280;44744;51.894;5.080;2023-04-19T02:48:52;102823.88;;;9.33;81.75
58967;BME280;44744;51.894;5.080;2023-04-19T02:49:53;102825.98;;;9.32;81.94
58967;BME280;44744;51.894;5.080;2023-04-19T02:50:53;102821.80;;;9.31;81.90
58967;BME280;44744;51.894;5.080;2023-04-19T02:51:53;102821.98;;;9.31;82.43
58967;BME280;44744;51.894;5.080;2023-04-19T02:52:54;102821.83;;;9.29;82.14
58967;BME280;44744;51.894;5.080;2023-04-19T02:53:54;102823.06;;;9.28;82.37
58967;BME280;44744;51.894;5.080;2023-04-19T02:54:54;102820.26;;;9.27;82.54
58967;BME280;44744;51.894;5.080;2023-04-19T02:55:54;102823.66;;;9.25;82.31
58967;BME280;44744;51.894;5.080;2023-04-19T02:56:55;102825.77;;;9.25;82.82
58967;BME280;44744;51.894;5.080;2023-04-19T02:57:55;102822.96;;;9.24;82.85
58967;BME280;44744;51.894;5.080;2023-04-19T02:58:57;102822.30;;;9.22;82.90
58967;BME280;44744;51.894;5.080;2023-04-19T02:59:59;102828.52;;;9.19;82.80
58967;BME280;44744;51.894;5.080;2023-04-19T03:00:59;102826.23;;;9.19;82.92
58967;BME280;44744;51.894;5.080;2023-04-19T03:02:20;102827.84;;;9.19;82.94
58967;BME280;44744;51.894;5.080;2023-04-19T03:03:21;102827.35;;;9.17;82.70
58967;BME280;44744;51.894;5.080;2023-04-19T03:04:21;102826.83;;;9.16;82.75
58967;BME280;44744;51.894;5.080;2023-04-19T03:05:22;102827.48;;;9.18;83.09
58967;BME280;44744;51.894;5.080;2023-04-19T03:06:22;102824.88;;;9.16;83.18
58967;BME280;44744;51.894;5.080;2023-04-19T03:07:23;102827.38;;;9.14;83.16
58967;BME280;44744;51.894;5.080;2023-04-19T03:08:24;102828.31;;;9.12;83.12
58967;BME280;44744;51.894;5.080;2023-04-19T03:09:24;102824.79;;;9.11;83.38
58967;BME280;44744;51.894;5.080;2023-04-19T03:10:24;102826.05;;;9.09;83.38
58967;BME280;44744;51.894;5.080;2023-04-19T03:11:25;102823.80;;;9.07;83.54
58967;BME280;44744;51.894;5.080;2023-04-19T03:12:25;102827.16;;;9.07;83.60
58967;BME280;44744;51.894;5.080;2023-04-19T03:13:25;102827.73;;;9.04;83.42
58967;BME280;44744;51.894;5.080;2023-04-19T03:14:26;102823.53;;;9.02;83.58
58967;BME280;44744;51.894;5.080;2023-04-19T03:15:26;102828.66;;;9.01;83.39
58967;BME280;44744;51.894;5.080;2023-04-19T03:16:26;102823.89;;;9.01;83.54
58967;BME280;44744;51.894;5.080;2023-04-19T03:17:26;102822.82;;;9.02;83.79
58967;BME280;44744;51.894;5.080;2023-04-19T03:18:27;102825.66;;;9.01;83.72
58967;BME280;44744;51.894;5.080;2023-04-19T03:19:27;102822.19;;;8.98;83.85
58967;BME280;44744;51.894;5.080;2023-04-19T03:20:28;102822.73;;;8.98;83.94
58967;BME280;44744;51.894;5.080;2023-04-19T03:21:28;102823.25;;;8.97;84.12
58967;BME280;44744;51.894;5.080;2023-04-19T03:22:28;102822.59;;;8.95;84.19
58967;BME280;44744;51.894;5.080;2023-04-19T03:23:29;102821.03;;;8.93;84.27
58967;BME280;44744;51.894;5.080;2023-04-19T03:24:29;102817.36;;;8.92;84.25
58967;BME280;44744;51.894;5.080;2023-04-19T03:25:30;102822.84;;;8.90;84.19
58967;BME280;44744;51.894;5.080;2023-04-19T03:26:30;102816.70;;;8.88;84.10
58967;BME280;44744;51.894;5.080;2023-04-19T03:27:33;102823.07;;;8.87;84.20
58967;BME280;44744;51.894;5.080;2023-04-19T03:28:33;102823.77;;;8.88;84.30
58967;BME280;44744;51.894;5.080;2023-04-19T03:29:34;102821.13;;;8.87;84.32
58967;BME280;44744;51.894;5.080;2023-04-19T03:30:34;102821.52;;;8.86;84.55
58967;BME280;44744;51.894;5.080;2023-04-19T03:31:35;102821.35;;;8.84;84.68
58967;BME280;44744;51.894;5.080;2023-04-19T03:32:36;102820.15;;;8.82;84.45
58967;BME280;44744;51.894;5.080;2023-04-19T03:33:36;102820.00;;;8.81;84.77
58967;BME280;44744;51.894;5.080;2023-04-19T03:34:36;102820.56;;;8.79;84.49
58967;BME280;44744;51.894;5.080;2023-04-19T03:35:37;102822.31;;;8.80;84.67
58967;BME280;44744;51.894;5.080;2023-04-19T03:36:38;102818.10;;;8.79;84.37
58967;BME280;44744;51.894;5.080;2023-04-19T03:37:39;102821.60;;;8.80;84.78
58967;BME280;44744;51.894;5.080;2023-04-19T03:38:39;102818.30;;;8.77;84.61
58967;BME280;44744;51.894;5.080;2023-04-19T03:39:39;102819.54;;;8.76;84.85
58967;BME280;44744;51.894;5.080;2023-04-19T03:40:40;102820.29;;;8.74;84.56
58967;BME280;44744;51.894;5.080;2023-04-19T03:41:40;102816.40;;;8.74;84.71
58967;BME280;44744;51.894;5.080;2023-04-19T03:42:41;102818.34;;;8.74;84.65
58967;BME280;44744;51.894;5.080;2023-04-19T03:43:41;102817.41;;;8.76;84.83
58967;BME280;44744;51.894;5.080;2023-04-19T03:44:41;102818.12;;;8.76;84.81
58967;BME280;44744;51.894;5.080;2023-04-19T03:45:41;102816.19;;;8.76;84.62
58967;BME280;44744;51.894;5.080;2023-04-19T03:46:42;102815.31;;;8.76;84.68
58967;BME280;44744;51.894;5.080;2023-04-19T03:47:42;102814.96;;;8.76;84.84
58967;BME280;44744;51.894;5.080;2023-04-19T03:48:42;102817.09;;;8.75;84.68
58967;BME280;44744;51.894;5.080;2023-04-19T03:49:43;102817.79;;;8.75;84.88
58967;BME280;44744;51.894;5.080;2023-04-19T03:50:43;102818.15;;;8.75;84.80
58967;BME280;44744;51.894;5.080;2023-04-19T03:51:43;102819.21;;;8.75;84.73
58967;BME280;44744;51.894;5.080;2023-04-19T03:52:44;102818.14;;;8.76;84.77
58967;BME280;44744;51.894;5.080;2023-04-19T03:53:44;102816.91;;;8.75;84.78
58967;BME280;44744;51.894;5.080;2023-04-19T03:54:44;102816.37;;;8.76;84.76
58967;BME280;44744;51.894;5.080;2023-04-19T03:55:44;102818.33;;;8.76;84.87
58967;BME280;44744;51.894;5.080;2023-04-19T03:56:45;102819.91;;;8.76;84.93
58967;BME280;44744;51.894;5.080;2023-04-19T03:57:45;102819.03;;;8.75;84.92
58967;BME280;44744;51.894;5.080;2023-04-19T03:58:45;102823.80;;;8.75;84.85
58967;BME280;44744;51.894;5.080;2023-04-19T03:59:45;102822.20;;;8.75;85.05
58967;BME280;44744;51.894;5.080;2023-04-19T04:00:46;102820.62;;;8.75;84.81
58967;BME280;44744;51.894;5.080;2023-04-19T04:01:46;102818.48;;;8.76;84.62
58967;BME280;44744;51.894;5.080;2023-04-19T04:02:46;102817.41;;;8.77;84.94
58967;BME280;44744;51.894;5.080;2023-04-19T04:03:47;102816.54;;;8.76;84.86
58967;BME280;44744;51.894;5.080;2023-04-19T04:04:52;102817.44;;;8.75;84.93
58967;BME280;44744;51.894;5.080;2023-04-19T04:05:53;102816.58;;;8.74;84.96
58967;BME280;44744;51.894;5.080;2023-04-19T04:06:53;102818.35;;;8.74;84.84
58967;BME280;44744;51.894;5.080;2023-04-19T04:07:53;102819.19;;;8.76;85.14
58967;BME280;44744;51.894;5.080;2023-04-19T04:08:54;102818.31;;;8.76;85.06
58967;BME280;44744;51.894;5.080;2023-04-19T04:09:54;102816.40;;;8.74;84.96
58967;BME280;44744;51.894;5.080;2023-04-19T04:10:54;102823.42;;;8.76;85.10
58967;BME280;44744;51.894;5.080;2023-04-19T04:11:54;102822.19;;;8.76;85.18
58967;BME280;44744;51.894;5.080;2023-04-19T04:12:55;102824.29;;;8.76;84.99
58967;BME280;44744;51.894;5.080;2023-04-19T04:13:55;102824.09;;;8.78;85.09
58967;BME280;44744;51.894;5.080;2023-04-19T04:14:56;102823.93;;;8.77;84.96
58967;BME280;44744;51.894;5.080;2023-04-19T04:15:56;102825.17;;;8.77;85.15
58967;BME280;44744;51.894;5.080;2023-04-19T04:16:56;102823.61;;;8.75;85.33
58967;BME280;44744;51.894;5.080;2023-04-19T04:17:57;102827.33;;;8.75;85.48
58967;BME280;44744;51.894;5.080;2023-04-19T04:18:57;102823.27;;;8.75;85.38
58967;BME280;44744;51.894;5.080;2023-04-19T04:19:57;102825.59;;;8.74;85.27
58967;BME280;44744;51.894;5.080;2023-04-19T04:21:01;102827.00;;;8.74;85.22
58967;BME280;44744;51.894;5.080;2023-04-19T04:22:02;102826.08;;;8.76;85.48
58967;BME280;44744;51.894;5.080;2023-04-19T04:23:03;102826.60;;;8.75;85.46
58967;BME280;44744;51.894;5.080;2023-04-19T04:24:03;102828.89;;;8.77;85.61
58967;BME280;44744;51.894;5.080;2023-04-19T04:25:04;102828.91;;;8.74;85.51
58967;BME280;44744;51.894;5.080;2023-04-19T04:26:04;102829.14;;;8.72;85.70
58967;BME280;44744;51.894;5.080;2023-04-19T04:27:05;102825.45;;;8.71;85.70
58967;BME280;44744;51.894;5.080;2023-04-19T04:28:05;102826.70;;;8.69;85.85
58967;BME280;44744;51.894;5.080;2023-04-19T04:29:05;102825.98;;;8.69;85.81
58967;BME280;44744;51.894;5.080;2023-04-19T04:30:07;102826.52;;;8.70;85.66
58967;BME280;44744;51.894;5.080;2023-04-19T04:31:07;102826.67;;;8.71;85.79
58967;BME280;44744;51.894;5.080;2023-04-19T04:32:08;102827.07;;;8.68;85.75
58967;BME280;44744;51.894;5.080;2023-04-19T04:33:08;102828.99;;;8.70;85.64
58967;BME280;44744;51.894;5.080;2023-04-19T04:34:09;102829.83;;;8.72;85.93
58967;BME280;44744;51.894;5.080;2023-04-19T04:35:10;102829.69;;;8.70;85.65
58967;BME280;44744;51.894;5.080;2023-04-19T04:36:10;102827.76;;;8.69;85.70
58967;BME280;44744;51.894;5.080;2023-04-19T04:37:11;102826.52;;;8.70;85.72
58967;BME280;44744;51.894;5.080;2023-04-19T04:38:14;102827.91;;;8.71;85.53
58967;BME280;44744;51.894;5.080;2023-04-19T04:39:15;102825.77;;;8.72;85.48
58967;BME280;44744;51.894;5.080;2023-04-19T04:40:31;102824.34;;;8.74;85.78
58967;BME280;44744;51.894;5.080;2023-04-19T04:41:31;102828.25;;;8.72;85.44
58967;BME280;44744;51.894;5.080;2023-04-19T04:42:32;102823.64;;;8.73;85.53
58967;BME280;44744;51.894;5.080;2023-04-19T04:43:32;102823.84;;;8.72;85.39
58967;BME280;44744;51.894;5.080;2023-04-19T04:44:36;102824.14;;;8.75;85.59
58967;BME280;44744;51.894;5.080;2023-04-19T04:45:36;102825.20;;;8.75;85.46
58967;BME280;44744;51.894;5.080;2023-04-19T04:46:36;102822.73;;;8.75;85.50
58967;BME280;44744;51.894;5.080;2023-04-19T04:47:37;102825.20;;;8.75;85.40
58967;BME280;44744;51.894;5.080;2023-04-19T04:48:37;102824.16;;;8.75;85.28
58967;BME280;44744;51.894;5.080;2023-04-19T04:49:37;102823.96;;;8.76;85.40
58967;BME280;44744;51.894;5.080;2023-04-19T04:50:38;102828.35;;;8.77;85.26
58967;BME280;44744;51.894;5.080;2023-04-19T04:51:38;102823.08;;;8.76;85.17
58967;BME280;44744;51.894;5.080;2023-04-19T04:52:38;102826.23;;;8.77;85.10
58967;BME280;44744;51.894;5.080;2023-04-19T04:53:39;102824.79;;;8.79;85.33
58967;BME280;44744;51.894;5.080;2023-04-19T04:54:39;102823.58;;;8.78;85.22
58967;BME280;44744;51.894;5.080;2023-04-19T04:55:39;102825.50;;;8.79;85.34
58967;BME280;44744;51.894;5.080;2023-04-19T04:56:40;102824.64;;;8.78;85.16
58967;BME280;44744;51.894;5.080;2023-04-19T04:57:40;102824.80;;;8.78;85.13
58967;BME280;44744;51.894;5.080;2023-04-19T04:58:40;102827.61;;;8.79;85.36
58967;BME280;44744;51.894;5.080;2023-04-19T04:59:41;102826.05;;;8.77;85.27
58967;BME280;44744;51.894;5.080;2023-04-19T05:00:41;102828.92;;;8.75;85.10
58967;BME280;44744;51.894;5.080;2023-04-19T05:01:41;102829.10;;;8.74;85.32
58967;BME280;44744;51.894;5.080;2023-04-19T05:02:42;102830.86;;;8.74;85.19
58967;BME280;44744;51.894;5.080;2023-04-19T05:03:42;102831.91;;;8.74;85.16
58967;BME280;44744;51.894;5.080;2023-04-19T05:04:42;102832.79;;;8.75;85.13
58967;BME280;44744;51.894;5.080;2023-04-19T05:05:43;102834.40;;;8.74;85.23
58967;BME280;44744;51.894;5.080;2023-04-19T05:06:43;102832.83;;;8.72;85.26
58967;BME280;44744;51.894;5.080;2023-04-19T05:07:43;102833.54;;;8.72;85.18
58967;BME280;44744;51.894;5.080;2023-04-19T05:08:44;102837.27;;;8.70;85.20
58967;BME280;44744;51.894;5.080;2023-04-19T05:09:44;102837.30;;;8.69;85.08
58967;BME280;44744;51.894;5.080;2023-04-19T05:10:44;102839.23;;;8.68;84.98
58967;BME280;44744;51.894;5.080;2023-04-19T05:11:45;102839.06;;;8.69;84.54
58967;BME280;44744;51.894;5.080;2023-04-19T05:12:45;102836.42;;;8.67;84.66
58967;BME280;44744;51.894;5.080;2023-04-19T05:13:45;102840.31;;;8.67;84.73
58967;BME280;44744;51.894;5.080;2023-04-19T05:14:46;102838.20;;;8.68;84.47
58967;BME280;44744;51.894;5.080;2023-04-19T05:15:46;102834.65;;;8.69;84.04
58967;BME280;44744;51.894;5.080;2023-04-19T05:16:46;102835.70;;;8.69;83.85
58967;BME280;44744;51.894;5.080;2023-04-19T05:17:47;102837.30;;;8.68;83.87
58967;BME280;44744;51.894;5.080;2023-04-19T05:18:50;102841.89;;;8.68;83.64
58967;BME280;44744;51.894;5.080;2023-04-19T05:19:50;102834.14;;;8.67;83.43
58967;BME280;44744;51.894;5.080;2023-04-19T05:20:51;102830.43;;;8.67;83.48
58967;BME280;44744;51.894;5.080;2023-04-19T05:21:51;102838.56;;;8.67;83.26